createdAt,value
2018-05-25T00:00:05.649Z,22.15
2018-05-25T00:01:10.394Z,21.55
2018-05-25T00:02:15.062Z,21.23
2018-05-25T00:03:19.730Z,20.60
2018-05-25T00:04:24.628Z,21.50
2018-05-25T00:05:29.302Z,21.05
2018-05-25T00:06:33.882Z,22.48
2018-05-25T00:07:38.643Z,20.67
2018-05-25T00:08:43.520Z,19.65
2018-05-25T00:09:48.260Z,20.05
2018-05-25T00:10:52.844Z,20.65
2018-05-25T00:11:57.434Z,20.10
2018-05-25T00:13:01.986Z,20.58
2018-05-25T00:14:07.441Z,20.45
2018-05-25T00:15:12.108Z,19.85
2018-05-25T00:16:16.766Z,20.08
2018-05-25T00:17:22.498Z,19.92
2018-05-25T00:18:27.946Z,18.70
2018-05-25T00:19:32.759Z,20.55
2018-05-25T00:20:38.396Z,21.23
2018-05-25T00:21:43.744Z,20.52
2018-05-25T00:22:48.282Z,20.90
2018-05-25T00:23:52.878Z,19.00
2018-05-25T00:24:57.460Z,19.37
2018-05-25T00:26:02.796Z,19.33
2018-05-25T00:27:08.139Z,18.65
2018-05-25T00:28:12.861Z,19.90
2018-05-25T00:29:17.527Z,19.27
2018-05-25T00:30:22.323Z,17.48
2018-05-25T00:31:26.986Z,18.75
2018-05-25T00:32:32.305Z,18.00
2018-05-25T00:33:36.857Z,18.52
2018-05-25T00:34:41.395Z,19.17
2018-05-25T00:35:46.161Z,18.02
2018-05-25T00:36:51.641Z,17.15
2018-05-25T00:37:56.599Z,19.52
2018-05-25T00:39:02.047Z,18.00
2018-05-25T00:40:06.818Z,17.92
2018-05-25T00:41:11.506Z,17.30
2018-05-25T00:42:16.177Z,19.05
2018-05-25T00:43:20.836Z,16.55
2018-05-25T00:44:25.659Z,18.40
2018-05-25T00:45:30.366Z,16.90
2018-05-25T00:46:35.031Z,17.40
2018-05-25T00:47:39.940Z,17.52
2018-05-25T00:48:44.890Z,16.95
2018-05-25T00:49:49.682Z,18.27
2018-05-25T00:52:02.921Z,17.60
2018-05-25T00:53:08.382Z,16.60
2018-05-25T00:54:13.818Z,16.87
2018-05-25T00:55:29.943Z,16.50
2018-05-25T00:56:34.623Z,16.33
2018-05-25T00:57:40.037Z,15.43
2018-05-25T00:58:44.722Z,16.30
2018-05-25T00:59:49.690Z,15.98
2018-05-25T01:00:55.135Z,15.88
2018-05-25T01:02:00.828Z,15.63
2018-05-25T01:03:05.526Z,15.20
2018-05-25T01:04:10.202Z,15.35
2018-05-25T01:05:15.672Z,15.10
2018-05-25T01:06:20.322Z,15.15
2018-05-25T01:07:25.206Z,16.55
2018-05-25T01:08:29.854Z,15.75
2018-05-25T01:09:34.523Z,16.02
2018-05-25T01:10:39.475Z,15.95
2018-05-25T01:11:44.220Z,15.80
2018-05-25T01:12:48.897Z,14.50
2018-05-25T01:13:53.676Z,14.65
2018-05-25T01:14:59.302Z,14.90
2018-05-25T01:16:04.317Z,15.25
2018-05-25T01:17:08.964Z,15.25
2018-05-25T01:18:14.423Z,13.30
2018-05-25T01:19:19.192Z,15.05
2018-05-25T01:20:23.872Z,14.90
2018-05-25T01:21:29.098Z,13.85
2018-05-25T01:22:33.777Z,14.10
2018-05-25T01:23:39.241Z,13.30
2018-05-25T01:24:43.926Z,14.93
2018-05-25T01:25:49.311Z,13.82
2018-05-25T01:26:54.527Z,14.77
2018-05-25T01:27:59.173Z,13.85
2018-05-25T01:29:03.880Z,13.15
2018-05-25T01:30:08.571Z,14.65
2018-05-25T01:31:13.267Z,13.73
2018-05-25T01:32:18.625Z,13.73
2018-05-25T01:33:23.272Z,12.32
2018-05-25T01:34:27.965Z,13.20
2018-05-25T01:35:32.707Z,13.02
2018-05-25T01:36:37.367Z,13.57
2018-05-25T01:37:42.374Z,13.38
2018-05-25T01:38:47.850Z,13.25
2018-05-25T01:39:52.503Z,12.20
2018-05-25T01:40:57.974Z,12.93
2018-05-25T01:42:03.674Z,13.75
2018-05-25T01:43:08.593Z,12.60
2018-05-25T01:44:13.286Z,11.48
2018-05-25T01:45:17.955Z,13.30
2018-05-25T01:46:22.694Z,11.27
2018-05-25T01:47:27.715Z,12.27
2018-05-25T01:48:32.770Z,12.15
2018-05-25T01:49:37.454Z,12.15
2018-05-25T01:50:42.324Z,12.48
2018-05-25T01:51:46.989Z,13.43
2018-05-25T01:52:53.060Z,12.35
2018-05-25T01:53:58.076Z,12.73
2018-05-25T01:55:02.730Z,12.93
2018-05-25T01:56:07.626Z,12.80
2018-05-25T01:57:12.428Z,12.95
2018-05-25T01:58:17.105Z,12.30
2018-05-25T01:59:22.830Z,11.45
2018-05-25T02:00:28.295Z,13.75
2018-05-25T02:01:32.910Z,12.45
2018-05-25T02:02:37.981Z,12.00
2018-05-25T02:03:42.635Z,13.18
2018-05-25T02:04:48.090Z,12.77
2018-05-25T02:05:52.735Z,12.25
2018-05-25T02:06:57.442Z,12.40
2018-05-25T02:08:02.146Z,11.75
2018-05-25T02:09:07.539Z,13.05
2018-05-25T02:10:12.200Z,12.23
2018-05-25T02:11:16.946Z,11.73
2018-05-25T02:12:21.600Z,12.00
2018-05-25T02:13:27.205Z,11.88
2018-05-25T02:14:31.871Z,11.32
2018-05-25T02:15:36.850Z,11.32
2018-05-25T02:16:41.516Z,11.95
2018-05-25T02:17:46.180Z,13.55
2018-05-25T02:18:51.035Z,12.13
2018-05-25T02:19:56.506Z,12.32
2018-05-25T02:21:01.481Z,11.98
2018-05-25T02:22:07.179Z,11.23
2018-05-25T02:23:11.880Z,11.77
2018-05-25T02:24:16.603Z,11.10
2018-05-25T02:25:22.049Z,11.70
2018-05-25T02:26:27.026Z,11.77
2018-05-25T02:27:31.676Z,12.73
2018-05-25T02:28:36.305Z,11.73
2018-05-25T02:29:40.971Z,11.75
2018-05-25T02:30:46.790Z,11.30
2018-05-25T02:31:51.986Z,11.77
2018-05-25T02:32:56.817Z,10.23
2018-05-25T02:34:01.548Z,11.05
2018-05-25T02:35:06.287Z,11.23
2018-05-25T02:36:11.773Z,10.85
2018-05-25T02:37:16.422Z,11.73
2018-05-25T02:38:21.075Z,10.23
2018-05-25T02:39:26.133Z,10.68
2018-05-25T02:40:30.815Z,9.38
2018-05-25T02:41:35.467Z,11.23
2018-05-25T02:42:40.173Z,10.25
2018-05-25T02:43:45.185Z,11.23
2018-05-25T02:44:49.914Z,11.60
2018-05-25T02:45:54.620Z,10.80
2018-05-25T02:46:59.321Z,10.20
2018-05-25T02:48:03.954Z,11.85
2018-05-25T02:49:46.839Z,10.05
2018-05-25T02:50:51.678Z,10.90
2018-05-25T02:51:56.294Z,10.45
2018-05-25T02:53:01.754Z,11.63
2018-05-25T02:54:06.542Z,11.25
2018-05-25T02:55:12.068Z,10.45
2018-05-25T02:56:16.803Z,10.15
2018-05-25T02:57:21.535Z,10.65
2018-05-25T02:58:26.420Z,10.93
2018-05-25T02:59:31.782Z,11.63
2018-05-25T03:00:36.421Z,10.95
2018-05-25T03:01:41.069Z,9.85
2018-05-25T03:02:46.489Z,10.32
2018-05-25T03:03:51.892Z,9.88
2018-05-25T03:04:57.281Z,10.23
2018-05-25T03:06:01.951Z,10.95
2018-05-25T03:07:07.678Z,11.05
2018-05-25T03:08:12.277Z,10.52
2018-05-25T03:09:16.970Z,9.95
2018-05-25T03:10:21.571Z,10.63
2018-05-25T03:11:27.071Z,10.70
2018-05-25T03:12:31.724Z,10.55
2018-05-25T03:13:36.389Z,11.25
2018-05-25T03:14:41.843Z,10.68
2018-05-25T03:15:46.517Z,10.50
2018-05-25T03:16:51.196Z,12.48
2018-05-25T03:17:56.877Z,10.00
2018-05-25T03:19:01.551Z,11.50
2018-05-25T03:20:06.192Z,10.27
2018-05-25T03:21:10.805Z,9.80
2018-05-25T03:22:15.509Z,10.57
2018-05-25T03:23:20.404Z,10.60
2018-05-25T03:24:26.130Z,10.20
2018-05-25T03:25:30.810Z,10.25
2018-05-25T03:26:35.391Z,11.25
2018-05-25T03:27:40.795Z,10.13
2018-05-25T03:28:45.461Z,9.50
2018-05-25T03:29:50.099Z,10.85
2018-05-25T03:30:54.724Z,9.60
2018-05-25T03:31:59.336Z,11.15
2018-05-25T03:33:03.992Z,11.23
2018-05-25T03:34:08.932Z,10.52
2018-05-25T03:35:14.326Z,9.98
2018-05-25T03:36:19.097Z,10.02
2018-05-25T03:37:23.752Z,10.57
2018-05-25T03:38:28.405Z,10.48
2018-05-25T03:39:34.058Z,11.10
2018-05-25T03:40:38.659Z,11.25
2018-05-25T03:41:43.303Z,10.82
2018-05-25T03:42:47.963Z,10.23
2018-05-25T03:43:52.606Z,11.15
2018-05-25T03:44:57.538Z,9.95
2018-05-25T03:46:02.218Z,11.90
2018-05-25T03:47:06.858Z,9.57
2018-05-25T03:48:11.446Z,10.13
2018-05-25T03:49:16.083Z,10.25
2018-05-25T03:50:21.036Z,11.20
2018-05-25T03:51:25.707Z,11.32
2018-05-25T03:52:31.137Z,10.80
2018-05-25T03:53:36.542Z,10.55
2018-05-25T03:54:41.186Z,10.85
2018-05-25T03:55:46.623Z,11.52
2018-05-25T03:56:52.053Z,10.55
2018-05-25T03:57:57.469Z,10.32
2018-05-25T04:01:17.922Z,11.68
2018-05-25T04:02:22.571Z,10.18
2018-05-25T04:03:27.220Z,10.43
2018-05-25T04:04:32.867Z,9.63
2018-05-25T04:05:38.265Z,10.52
2018-05-25T04:06:43.185Z,10.65
2018-05-25T04:07:47.822Z,11.20
2018-05-25T04:08:52.466Z,11.10
2018-05-25T04:09:57.159Z,10.75
2018-05-25T04:11:02.536Z,10.85
2018-05-25T04:12:07.210Z,10.70
2018-05-25T04:13:12.622Z,10.73
2018-05-25T04:14:18.059Z,10.90
2018-05-25T04:15:23.511Z,11.18
2018-05-25T04:16:28.917Z,10.13
2018-05-25T04:17:33.815Z,10.25
2018-05-25T04:18:38.424Z,11.18
2018-05-25T04:19:43.028Z,11.57
2018-05-25T04:20:47.675Z,10.30
2018-05-25T04:21:52.194Z,10.63
2018-05-25T04:22:56.804Z,10.85
2018-05-25T04:24:01.422Z,9.77
2018-05-25T04:25:06.129Z,11.07
2018-05-25T04:26:10.753Z,10.57
2018-05-25T04:27:15.375Z,11.15
2018-05-25T04:28:20.294Z,10.13
2018-05-25T04:29:24.990Z,11.63
2018-05-25T04:30:29.629Z,10.50
2018-05-25T04:31:34.301Z,10.73
2018-05-25T04:32:39.706Z,10.32
2018-05-25T04:33:44.411Z,10.45
2018-05-25T04:34:50.311Z,10.93
2018-05-25T04:35:55.075Z,12.20
2018-05-25T04:37:00.545Z,10.05
2018-05-25T04:38:05.440Z,11.00
2018-05-25T04:39:10.212Z,10.65
2018-05-25T04:40:14.844Z,10.55
2018-05-25T04:41:19.508Z,9.88
2018-05-25T04:42:24.115Z,10.90
2018-05-25T04:43:29.042Z,10.60
2018-05-25T04:44:33.923Z,10.05
2018-05-25T04:45:38.952Z,11.25
2018-05-25T04:46:44.368Z,9.70
2018-05-25T04:47:49.008Z,10.05
2018-05-25T04:48:54.435Z,11.75
2018-05-25T04:50:00.302Z,10.45
2018-05-25T04:51:05.231Z,10.93
2018-05-25T04:52:10.026Z,10.55
2018-05-25T04:53:15.425Z,10.35
2018-05-25T04:54:20.274Z,11.05
2018-05-25T04:55:26.074Z,10.35
2018-05-25T04:56:30.699Z,10.45
2018-05-25T04:57:35.343Z,11.02
2018-05-25T04:58:40.770Z,10.95
2018-05-25T04:59:45.427Z,9.65
2018-05-25T05:00:50.394Z,10.27
2018-05-25T05:01:55.377Z,10.82
2018-05-25T05:03:00.001Z,10.50
2018-05-25T05:04:04.639Z,10.45
2018-05-25T05:05:09.539Z,11.32
2018-05-25T05:06:14.258Z,11.35
2018-05-25T05:07:18.897Z,10.82
2018-05-25T05:08:23.618Z,10.35
2018-05-25T05:09:28.257Z,10.82
2018-05-25T05:10:33.653Z,11.50
2018-05-25T05:11:40.071Z,11.27
2018-05-25T05:12:44.717Z,11.57
2018-05-25T05:13:49.512Z,10.40
2018-05-25T05:14:54.445Z,10.68
2018-05-25T05:15:59.072Z,10.07
2018-05-25T05:17:03.714Z,11.20
2018-05-25T05:18:22.917Z,10.88
2018-05-25T05:19:27.565Z,10.93
2018-05-25T05:20:32.192Z,10.52
2018-05-25T05:21:36.836Z,10.00
2018-05-25T05:22:42.276Z,10.10
2018-05-25T05:23:47.685Z,10.18
2018-05-25T05:24:52.381Z,10.27
2018-05-25T05:25:57.799Z,10.55
2018-05-25T05:27:02.415Z,9.95
2018-05-25T05:28:07.091Z,10.77
2018-05-25T05:29:11.711Z,10.50
2018-05-25T05:30:16.368Z,11.20
2018-05-25T05:31:21.314Z,10.88
2018-05-25T05:32:26.722Z,12.25
2018-05-25T05:33:31.416Z,11.27
2018-05-25T05:34:36.080Z,10.70
2018-05-25T05:35:40.845Z,10.85
2018-05-25T05:36:45.511Z,12.02
2018-05-25T05:37:50.206Z,10.05
2018-05-25T05:38:54.842Z,9.82
2018-05-25T05:39:59.481Z,12.13
2018-05-25T05:41:04.895Z,12.43
2018-05-25T05:42:09.862Z,10.50
2018-05-25T05:43:14.632Z,12.65
2018-05-25T05:44:19.328Z,11.85
2018-05-25T05:45:23.994Z,11.38
2018-05-25T05:46:28.674Z,11.50
2018-05-25T05:47:34.767Z,10.55
2018-05-25T05:48:39.381Z,10.85
2018-05-25T05:49:44.072Z,11.32
2018-05-25T05:50:49.522Z,9.88
2018-05-25T05:51:54.203Z,10.98
2018-05-25T05:52:58.867Z,10.93
2018-05-25T05:54:03.501Z,10.82
2018-05-25T05:55:08.160Z,10.00
2018-05-25T05:56:14.090Z,12.00
2018-05-25T05:57:18.766Z,10.90
2018-05-25T05:58:23.469Z,11.30
2018-05-25T05:59:33.755Z,10.63
2018-05-25T06:00:38.391Z,11.38
2018-05-25T06:01:43.071Z,12.13
2018-05-25T06:02:48.082Z,11.38
2018-05-25T06:03:52.831Z,11.35
2018-05-25T06:04:57.487Z,11.48
2018-05-25T06:06:03.271Z,10.80
2018-05-25T06:07:07.950Z,10.93
2018-05-25T06:08:13.407Z,10.90
2018-05-25T06:09:18.132Z,10.98
2018-05-25T06:10:22.784Z,11.20
2018-05-25T06:11:27.418Z,11.32
2018-05-25T06:12:32.110Z,11.05
2018-05-25T06:13:36.972Z,11.90
2018-05-25T06:14:42.732Z,12.52
2018-05-25T06:15:47.426Z,12.85
2018-05-25T06:16:52.891Z,11.98
2018-05-25T06:17:57.683Z,12.50
2018-05-25T06:19:03.094Z,13.10
2018-05-25T06:20:08.543Z,13.32
2018-05-25T06:21:14.012Z,12.85
2018-05-25T06:22:18.742Z,12.50
2018-05-25T06:23:23.519Z,12.30
2018-05-25T06:24:28.642Z,12.15
2018-05-25T06:25:33.774Z,11.40
2018-05-25T06:26:38.474Z,12.75
2018-05-25T06:27:44.081Z,13.50
2018-05-25T06:28:48.791Z,12.95
2018-05-25T06:29:53.712Z,11.65
2018-05-25T06:30:58.709Z,14.00
2018-05-25T06:32:03.398Z,12.02
2018-05-25T06:33:08.142Z,11.73
2018-05-25T06:34:12.818Z,12.52
2018-05-25T06:35:17.510Z,12.63
2018-05-25T06:36:22.176Z,11.25
2018-05-25T06:37:27.429Z,13.18
2018-05-25T06:38:32.099Z,12.23
2018-05-25T06:39:37.770Z,13.88
2018-05-25T06:40:42.432Z,13.43
2018-05-25T06:41:47.054Z,12.90
2018-05-25T06:42:51.838Z,12.90
2018-05-25T06:43:56.487Z,13.68
2018-05-25T06:45:01.140Z,13.73
2018-05-25T06:46:05.807Z,14.23
2018-05-25T06:47:10.811Z,14.10
2018-05-25T06:48:16.086Z,13.30
2018-05-25T06:49:21.566Z,11.73
2018-05-25T06:50:26.195Z,12.73
2018-05-25T06:51:30.869Z,12.50
2018-05-25T06:52:36.352Z,12.30
2018-05-25T06:53:45.852Z,12.60
2018-05-25T06:54:51.147Z,13.93
2018-05-25T06:55:57.088Z,11.98
2018-05-25T06:57:02.365Z,12.77
2018-05-25T06:58:08.241Z,12.40
2018-05-25T06:59:15.902Z,13.55
2018-05-25T07:00:21.740Z,13.00
2018-05-25T07:01:26.437Z,12.63
2018-05-25T07:02:32.511Z,13.80
2018-05-25T07:03:37.695Z,12.57
2018-05-25T07:04:43.988Z,12.80
2018-05-25T07:05:49.185Z,13.30
2018-05-25T07:06:54.193Z,12.50
2018-05-25T07:08:00.678Z,12.88
2018-05-25T07:09:06.925Z,13.13
2018-05-25T07:10:11.923Z,13.70
2018-05-25T07:11:17.816Z,13.50
2018-05-25T07:12:23.063Z,13.02
2018-05-25T07:13:28.468Z,12.57
2018-05-25T07:15:35.964Z,13.10
2018-05-25T07:16:41.296Z,12.37
2018-05-25T07:17:45.973Z,12.65
2018-05-25T07:18:51.486Z,15.20
2018-05-25T07:19:56.144Z,14.15
2018-05-25T07:21:00.804Z,14.77
2018-05-25T07:22:05.574Z,14.60
2018-05-25T07:23:10.402Z,15.05
2018-05-25T07:24:15.132Z,12.80
2018-05-25T07:25:20.224Z,14.30
2018-05-25T07:26:26.013Z,14.55
2018-05-25T07:27:30.683Z,13.55
2018-05-25T07:28:36.158Z,12.75
2018-05-25T07:29:40.862Z,14.50
2018-05-25T07:30:45.567Z,15.30
2018-05-25T07:31:50.291Z,14.10
2018-05-25T07:32:54.959Z,12.93
2018-05-25T07:33:59.725Z,13.73
2018-05-25T07:35:04.424Z,15.23
2018-05-25T07:36:09.230Z,14.68
2018-05-25T07:37:15.786Z,15.25
2018-05-25T07:38:21.284Z,14.68
2018-05-25T07:39:26.067Z,15.05
2018-05-25T07:40:30.907Z,14.38
2018-05-25T07:41:35.608Z,14.87
2018-05-25T07:42:40.713Z,14.63
2018-05-25T07:43:45.461Z,13.80
2018-05-25T07:44:50.484Z,14.60
2018-05-25T07:45:55.299Z,14.87
2018-05-25T07:47:00.759Z,14.68
2018-05-25T07:48:05.542Z,14.52
2018-05-25T07:49:10.219Z,14.65
2018-05-25T07:50:14.916Z,14.25
2018-05-25T07:51:20.428Z,14.93
2018-05-25T07:52:25.888Z,14.45
2018-05-25T07:53:30.933Z,15.20
2018-05-25T07:54:35.965Z,15.05
2018-05-25T07:55:40.703Z,15.40
2018-05-25T07:56:45.404Z,15.82
2018-05-25T07:57:50.141Z,15.25
2018-05-25T07:58:55.597Z,16.08
2018-05-25T08:00:00.386Z,16.37
2018-05-25T08:01:05.100Z,15.90
2018-05-25T08:02:18.173Z,15.93
2018-05-25T08:03:23.531Z,14.07
2018-05-25T08:04:28.232Z,14.10
2018-05-25T08:05:33.242Z,15.23
2018-05-25T08:06:38.005Z,16.62
2018-05-25T08:07:42.667Z,15.13
2018-05-25T08:08:47.403Z,15.20
2018-05-25T08:09:52.074Z,16.50
2018-05-25T08:10:58.181Z,16.70
2018-05-25T08:12:02.888Z,15.68
2018-05-25T08:13:07.576Z,15.57
2018-05-25T08:14:12.318Z,16.40
2018-05-25T08:15:17.887Z,15.43
2018-05-25T08:16:22.723Z,14.15
2018-05-25T08:17:27.445Z,14.98
2018-05-25T08:18:32.979Z,16.02
2018-05-25T08:19:37.914Z,16.08
2018-05-25T08:20:43.419Z,15.45
2018-05-25T08:21:48.617Z,14.87
2018-05-25T08:22:53.390Z,15.95
2018-05-25T08:23:58.253Z,15.23
2018-05-25T08:25:03.020Z,14.48
2018-05-25T08:26:08.597Z,14.57
2018-05-25T08:27:13.305Z,16.05
2018-05-25T08:28:19.773Z,15.70
2018-05-25T08:29:25.588Z,16.33
2018-05-25T08:30:30.654Z,15.15
2018-05-25T08:31:35.318Z,15.23
2018-05-25T08:32:41.092Z,15.30
2018-05-25T08:33:45.791Z,15.30
2018-05-25T08:34:51.505Z,14.65
2018-05-25T08:35:56.338Z,14.95
2018-05-25T08:37:01.070Z,15.48
2018-05-25T08:38:07.126Z,16.33
2018-05-25T08:39:12.585Z,15.63
2018-05-25T08:40:18.082Z,15.52
2018-05-25T08:41:23.061Z,15.45
2018-05-25T08:42:27.739Z,14.82
2018-05-25T08:43:33.524Z,14.55
2018-05-25T08:44:38.565Z,15.68
2018-05-25T08:45:43.303Z,15.23
2018-05-25T08:46:48.038Z,15.85
2018-05-25T08:47:53.555Z,14.90
2018-05-25T08:48:58.874Z,16.52
2018-05-25T08:50:03.839Z,15.55
2018-05-25T08:51:10.157Z,15.40
2018-05-25T08:52:14.947Z,15.57
2018-05-25T08:53:19.733Z,15.43
2018-05-25T08:54:24.912Z,15.93
2018-05-25T08:55:29.692Z,14.18
2018-05-25T08:56:35.126Z,14.52
2018-05-25T08:57:39.868Z,14.20
2018-05-25T08:58:45.335Z,15.35
2018-05-25T08:59:50.044Z,13.93
2018-05-25T09:00:54.807Z,15.35
2018-05-25T09:01:59.748Z,13.98
2018-05-25T09:03:05.244Z,13.75
2018-05-25T09:04:10.491Z,16.30
2018-05-25T09:05:15.141Z,16.48
2018-05-25T09:06:21.150Z,15.75
2018-05-25T09:07:25.850Z,15.00
2018-05-25T09:08:30.827Z,15.88
2018-05-25T09:09:36.349Z,14.70
2018-05-25T09:10:41.761Z,16.42
2018-05-25T09:11:46.668Z,15.02
2018-05-25T09:12:51.369Z,14.65
2018-05-25T09:13:56.041Z,14.73
2018-05-25T09:15:01.537Z,17.27
2018-05-25T09:16:06.498Z,14.45
2018-05-25T09:17:11.727Z,15.85
2018-05-25T09:18:17.299Z,14.70
2018-05-25T09:19:22.268Z,16.00
2018-05-25T09:20:26.969Z,16.40
2018-05-25T09:21:32.162Z,16.10
2018-05-25T09:22:37.128Z,15.82
2018-05-25T09:23:41.965Z,15.45
2018-05-25T09:24:47.425Z,16.40
2018-05-25T09:25:52.407Z,16.40
2018-05-25T09:26:57.915Z,15.77
2018-05-25T09:28:02.569Z,17.17
2018-05-25T09:29:08.026Z,14.90
2018-05-25T09:30:13.451Z,17.02
2018-05-25T09:31:19.073Z,14.80
2018-05-25T09:32:23.815Z,15.95
2018-05-25T09:33:28.591Z,15.95
2018-05-25T09:34:33.284Z,15.88
2018-05-25T09:35:37.973Z,16.73
2018-05-25T09:36:42.653Z,15.60
2018-05-25T09:37:47.452Z,16.05
2018-05-25T09:38:52.135Z,16.10
2018-05-25T09:39:57.091Z,15.60
2018-05-25T09:41:01.996Z,15.20
2018-05-25T09:42:06.729Z,15.50
2018-05-25T09:43:11.513Z,16.17
2018-05-25T09:44:16.195Z,15.05
2018-05-25T09:45:21.727Z,15.00
2018-05-25T09:46:27.156Z,15.43
2018-05-25T09:47:31.855Z,14.35
2018-05-25T09:48:36.569Z,15.25
2018-05-25T09:49:41.227Z,16.05
2018-05-25T09:50:46.657Z,14.40
2018-05-25T09:51:52.486Z,14.40
2018-05-25T09:52:57.924Z,16.23
2018-05-25T09:54:03.639Z,15.70
2018-05-25T09:55:08.324Z,17.08
2018-05-25T09:56:13.076Z,16.98
2018-05-25T09:57:17.906Z,17.12
2018-05-25T09:58:22.594Z,15.48
2018-05-25T09:59:27.347Z,16.30
2018-05-25T10:00:33.385Z,15.10
2018-05-25T10:01:38.207Z,16.87
2018-05-25T10:02:42.875Z,14.90
2018-05-25T10:03:47.687Z,14.38
2018-05-25T10:04:52.734Z,14.70
2018-05-25T10:05:57.403Z,15.82
2018-05-25T10:07:02.892Z,17.00
2018-05-25T10:08:07.831Z,15.77
2018-05-25T10:09:12.678Z,16.92
2018-05-25T10:10:18.265Z,16.50
2018-05-25T10:11:22.945Z,16.20
2018-05-25T10:12:27.723Z,14.95
2018-05-25T10:13:32.659Z,15.25
2018-05-25T10:14:37.378Z,15.90
2018-05-25T10:15:42.934Z,17.40
2018-05-25T10:16:48.389Z,15.50
2018-05-25T10:17:54.184Z,15.57
2018-05-25T10:18:58.991Z,15.70
2018-05-25T10:20:04.029Z,16.35
2018-05-25T10:21:09.642Z,15.45
2018-05-25T10:22:14.373Z,14.80
2018-05-25T10:23:19.281Z,17.52
2018-05-25T10:24:24.023Z,16.20
2018-05-25T10:25:28.750Z,15.73
2018-05-25T10:26:35.191Z,15.65
2018-05-25T10:27:40.143Z,15.63
2018-05-25T10:28:45.006Z,14.70
2018-05-25T10:29:49.882Z,15.25
2018-05-25T10:30:54.678Z,16.65
2018-05-25T10:31:59.425Z,15.27
2018-05-25T10:33:04.324Z,14.82
2018-05-25T10:34:09.018Z,16.12
2018-05-25T10:35:13.755Z,15.65
2018-05-25T10:36:18.923Z,16.12
2018-05-25T10:37:24.035Z,16.27
2018-05-25T10:38:28.749Z,14.50
2018-05-25T10:39:33.529Z,15.45
2018-05-25T10:40:38.205Z,16.55
2018-05-25T10:41:43.293Z,14.87
2018-05-25T10:42:48.930Z,14.95
2018-05-25T10:43:53.698Z,16.40
2018-05-25T10:44:58.509Z,15.93
2018-05-25T10:46:04.102Z,15.55
2018-05-25T10:47:09.109Z,14.52
2018-05-25T10:48:13.972Z,13.68
2018-05-25T10:49:18.758Z,15.88
2018-05-25T10:50:23.517Z,16.60
2018-05-25T10:51:29.037Z,16.30
2018-05-25T10:52:34.073Z,15.93
2018-05-25T10:53:39.637Z,14.98
2018-05-25T10:54:45.147Z,16.05
2018-05-25T10:55:50.939Z,14.87
2018-05-25T10:56:55.801Z,16.50
2018-05-25T10:58:01.530Z,15.85
2018-05-25T10:59:06.293Z,15.43
2018-05-25T11:00:11.505Z,15.38
2018-05-25T11:01:17.203Z,15.00
2018-05-25T11:02:21.937Z,14.93
2018-05-25T11:03:27.085Z,14.45
2018-05-25T11:04:32.038Z,15.30
2018-05-25T11:05:37.038Z,15.55
2018-05-25T11:06:42.492Z,14.65
2018-05-25T11:07:47.232Z,14.30
2018-05-25T11:08:52.416Z,15.10
2018-05-25T11:09:57.957Z,14.25
2018-05-25T11:11:03.191Z,15.68
2018-05-25T11:12:08.402Z,15.40
2018-05-25T11:13:13.161Z,15.10
2018-05-25T11:14:18.134Z,14.57
2018-05-25T11:15:23.563Z,15.07
2018-05-25T11:16:28.343Z,14.80
2018-05-25T11:17:33.098Z,14.40
2018-05-25T11:18:37.852Z,14.70
2018-05-25T11:19:42.940Z,13.48
2018-05-25T11:20:47.660Z,15.27
2018-05-25T11:21:53.261Z,14.00
2018-05-25T11:22:57.973Z,14.23
2018-05-25T11:24:02.786Z,14.35
2018-05-25T11:25:07.546Z,13.85
2018-05-25T11:26:12.356Z,13.13
2018-05-25T11:27:17.233Z,14.40
2018-05-25T11:28:22.473Z,14.05
2018-05-25T11:29:53.039Z,14.52
2018-05-25T11:30:58.645Z,13.07
2018-05-25T11:32:03.392Z,13.43
2018-05-25T11:33:08.116Z,13.35
2018-05-25T11:34:12.937Z,13.07
2018-05-25T11:35:18.655Z,12.85
2018-05-25T11:36:23.374Z,13.62
2018-05-25T11:37:28.423Z,12.40
2018-05-25T11:38:33.228Z,13.90
2018-05-25T11:39:37.986Z,13.18
2018-05-25T11:40:42.850Z,14.43
2018-05-25T11:41:47.988Z,14.40
2018-05-25T11:42:52.747Z,13.45
2018-05-25T11:43:57.469Z,13.55
2018-05-25T11:45:02.243Z,13.20
2018-05-25T11:46:07.151Z,13.88
2018-05-25T11:47:11.848Z,12.45
2018-05-25T11:48:16.663Z,13.60
2018-05-25T11:49:21.337Z,13.45
2018-05-25T11:50:26.887Z,13.82
2018-05-25T11:51:31.664Z,13.50
2018-05-25T11:52:36.327Z,12.82
2018-05-25T11:53:41.238Z,13.20
2018-05-25T11:54:46.179Z,12.63
2018-05-25T11:55:50.874Z,13.73
2018-05-25T11:56:56.308Z,12.82
2018-05-25T11:58:01.757Z,12.85
2018-05-25T11:59:06.749Z,12.00
2018-05-25T12:00:12.377Z,13.65
2018-05-25T12:01:17.046Z,14.32
2018-05-25T12:02:21.867Z,13.80
2018-05-25T12:03:27.375Z,13.30
2018-05-25T12:04:32.876Z,13.75
2018-05-25T12:05:39.669Z,13.00
2018-05-25T12:06:45.436Z,13.80
2018-05-25T12:07:50.103Z,13.32
2018-05-25T12:08:54.782Z,12.75
2018-05-25T12:10:00.581Z,13.60
2018-05-25T12:11:05.280Z,13.25
2018-05-25T12:12:09.959Z,13.70
2018-05-25T12:13:14.865Z,14.20
2018-05-25T12:14:19.519Z,12.98
2018-05-25T12:15:24.268Z,13.60
2018-05-25T12:16:28.937Z,14.38
2018-05-25T12:17:33.618Z,13.70
2018-05-25T12:18:39.050Z,14.07
2018-05-25T12:19:44.484Z,13.50
2018-05-25T12:20:49.196Z,13.90
2018-05-25T12:21:54.737Z,13.85
2018-05-25T12:22:59.474Z,13.00
2018-05-25T12:24:04.184Z,12.82
2018-05-25T12:25:08.927Z,13.10
2018-05-25T12:26:14.978Z,13.55
2018-05-25T12:27:19.719Z,13.40
2018-05-25T12:28:24.382Z,13.90
2018-05-25T12:29:29.371Z,12.80
2018-05-25T12:30:34.029Z,14.20
2018-05-25T12:31:38.748Z,13.45
2018-05-25T12:32:43.754Z,12.52
2018-05-25T12:33:48.592Z,12.80
2018-05-25T12:34:53.279Z,11.77
2018-05-25T12:35:58.740Z,13.50
2018-05-25T12:37:03.447Z,12.55
2018-05-25T12:38:08.203Z,13.05
2018-05-25T12:39:12.946Z,12.95
2018-05-25T12:40:17.671Z,13.57
2018-05-25T12:41:23.346Z,13.45
2018-05-25T12:42:28.378Z,13.30
2018-05-25T12:43:33.067Z,13.27
2018-05-25T12:44:47.315Z,12.98
2018-05-25T12:45:52.177Z,12.90
2018-05-25T12:46:57.028Z,12.60
2018-05-25T12:48:03.127Z,13.05
2018-05-25T12:49:07.892Z,13.05
2018-05-25T12:50:13.345Z,12.85
2018-05-25T12:51:18.857Z,13.82
2018-05-25T12:52:23.520Z,14.20
2018-05-25T12:53:28.778Z,12.45
2018-05-25T12:54:33.759Z,12.50
2018-05-25T12:55:38.715Z,12.95
2018-05-25T12:56:43.450Z,12.07
2018-05-25T12:57:48.965Z,12.73
2018-05-25T12:58:54.399Z,12.48
2018-05-25T12:59:59.074Z,13.13
2018-05-25T13:01:04.690Z,13.48
2018-05-25T13:02:09.521Z,13.05
2018-05-25T13:03:15.268Z,13.15
2018-05-25T13:04:21.169Z,13.15
2018-05-25T13:05:25.904Z,12.45
2018-05-25T13:06:31.381Z,13.27
2018-05-25T13:07:36.376Z,12.63
2018-05-25T13:08:41.573Z,12.63
2018-05-25T13:09:46.531Z,12.15
2018-05-25T13:10:52.068Z,12.00
2018-05-25T13:11:57.508Z,12.48
2018-05-25T13:13:02.313Z,12.80
2018-05-25T13:14:07.778Z,11.70
2018-05-25T13:15:13.253Z,11.60
2018-05-25T13:16:18.724Z,12.07
2018-05-25T13:17:24.223Z,12.15
2018-05-25T13:18:29.757Z,12.60
2018-05-25T13:19:34.524Z,13.20
2018-05-25T13:20:40.240Z,13.00
2018-05-25T13:21:45.012Z,12.57
2018-05-25T13:22:49.786Z,11.80
2018-05-25T13:23:55.255Z,13.90
2018-05-25T13:25:00.034Z,13.80
2018-05-25T13:26:05.512Z,15.85
2018-05-25T13:27:10.201Z,13.75
2018-05-25T13:28:15.656Z,13.52
2018-05-25T13:29:20.380Z,12.13
2018-05-25T13:30:25.143Z,13.60
2018-05-25T13:31:29.884Z,12.85
2018-05-25T13:32:35.322Z,13.00
2018-05-25T13:33:40.760Z,12.93
2018-05-25T13:34:46.219Z,13.40
2018-05-25T13:35:50.862Z,13.35
2018-05-25T13:36:55.524Z,12.18
2018-05-25T13:38:01.498Z,13.07
2018-05-25T13:39:07.532Z,12.25
2018-05-25T13:40:12.564Z,12.20
2018-05-25T13:41:17.234Z,12.70
2018-05-25T13:42:21.937Z,13.15
2018-05-25T13:43:26.660Z,12.30
2018-05-25T13:44:31.555Z,12.95
2018-05-25T13:45:36.223Z,13.10
2018-05-25T13:46:41.754Z,13.88
2018-05-25T13:47:46.468Z,12.93
2018-05-25T13:48:52.008Z,12.20
2018-05-25T13:49:57.651Z,12.45
2018-05-25T13:51:03.462Z,12.55
2018-05-25T13:52:08.194Z,12.02
2018-05-25T13:53:13.670Z,13.10
2018-05-25T13:54:18.425Z,12.50
2018-05-25T13:55:23.130Z,12.75
2018-05-25T13:56:27.831Z,12.88
2018-05-25T13:57:32.527Z,13.32
2018-05-25T13:58:37.256Z,12.15
2018-05-25T13:59:41.974Z,13.57
2018-05-25T14:00:46.744Z,13.52
2018-05-25T14:01:52.165Z,12.90
2018-05-25T14:02:57.635Z,13.27
2018-05-25T14:04:03.079Z,12.27